sensor_id;sensor_type;location;lat;lon;timestamp;P1;P2;P0;N1;N25;N10
84107;NextPM;74203;50.730;1.626;2023-12-14T00:01:40;12.45;9.20;8.25;115.50;117.00;117.00
84107;NextPM;74203;50.730;1.626;2023-12-14T00:03:48;13.35;9.85;8.85;116.50;117.50;118.50
84107;NextPM;74203;50.730;1.626;2023-12-14T00:05:56;12.15;8.95;8.05;113.50;114.00;114.50
84107;NextPM;74203;50.730;1.626;2023-12-14T00:08:04;11.95;8.80;7.95;110.50;111.50;111.50
84107;NextPM;74203;50.730;1.626;2023-12-14T00:10:12;13.05;9.65;8.70;116.50;117.50;118.50
84107;NextPM;74203;50.730;1.626;2023-12-14T00:12:20;13.30;9.85;8.85;116.00;117.00;118.00
84107;NextPM;74203;50.730;1.626;2023-12-14T00:14:27;13.35;9.90;8.90;121.50;122.50;123.50
84107;NextPM;74203;50.730;1.626;2023-12-14T00:16:35;13.85;10.25;9.25;124.50;125.50;126.50
84107;NextPM;74203;50.730;1.626;2023-12-14T00:18:43;13.40;9.85;8.90;121.00;122.00;122.50
84107;NextPM;74203;50.730;1.626;2023-12-14T00:20:50;12.85;9.50;8.55;116.50;118.00;118.00
84107;NextPM;74203;50.730;1.626;2023-12-14T00:22:59;12.30;9.10;8.15;108.50;109.50;110.00
84107;NextPM;74203;50.730;1.626;2023-12-14T00:25:07;11.60;8.55;7.70;108.00;108.50;109.00
84107;NextPM;74203;50.730;1.626;2023-12-14T00:27:15;11.90;8.80;7.90;109.50;110.50;111.00
84107;NextPM;74203;50.730;1.626;2023-12-14T00:29:23;11.35;8.35;7.55;103.00;104.00;104.00
84107;NextPM;74203;50.730;1.626;2023-12-14T00:31:30;11.20;8.25;7.45;100.00;100.50;101.00
84107;NextPM;74203;50.730;1.626;2023-12-14T00:33:38;11.20;8.25;7.45;99.50;100.50;100.50
84107;NextPM;74203;50.730;1.626;2023-12-14T00:35:45;12.05;8.90;8.00;108.00;109.00;109.00
84107;NextPM;74203;50.730;1.626;2023-12-14T00:37:53;12.65;9.35;8.40;112.00;113.50;113.50
84107;NextPM;74203;50.730;1.626;2023-12-14T00:40:01;11.60;8.55;7.70;108.50;109.50;110.00
84107;NextPM;74203;50.730;1.626;2023-12-14T00:42:09;13.00;9.60;8.65;116.50;117.50;118.00
84107;NextPM;74203;50.730;1.626;2023-12-14T00:44:17;13.60;10.05;9.05;123.50;124.50;125.00
84107;NextPM;74203;50.730;1.626;2023-12-14T00:46:25;13.25;9.75;8.80;118.50;119.50;119.50
84107;NextPM;74203;50.730;1.626;2023-12-14T00:48:32;14.40;10.70;9.60;128.50;129.50;130.00
84107;NextPM;74203;50.730;1.626;2023-12-14T00:50:40;13.85;10.20;9.25;128.50;129.50;130.00
84107;NextPM;74203;50.730;1.626;2023-12-14T00:52:48;12.50;9.25;8.30;112.50;113.50;113.50
84107;NextPM;74203;50.730;1.626;2023-12-14T00:54:56;13.40;9.90;8.95;120.00;121.00;121.50
84107;NextPM;74203;50.730;1.626;2023-12-14T00:57:04;11.80;8.75;7.85;107.50;108.50;109.00
84107;NextPM;74203;50.730;1.626;2023-12-14T00:59:12;11.40;8.40;7.60;105.00;106.00;106.50
84107;NextPM;74203;50.730;1.626;2023-12-14T01:01:20;11.05;8.15;7.30;100.50;101.50;102.00
84107;NextPM;74203;50.730;1.626;2023-12-14T01:03:28;9.60;7.10;6.40;89.00;90.00;90.50
84107;NextPM;74203;50.730;1.626;2023-12-14T01:05:35;10.95;8.10;7.30;97.50;99.00;99.50
84107;NextPM;74203;50.730;1.626;2023-12-14T01:07:43;11.10;8.20;7.40;101.50;103.00;103.00
84107;NextPM;74203;50.730;1.626;2023-12-14T01:09:51;10.35;7.65;6.90;97.00;97.50;98.50
84107;NextPM;74203;50.730;1.626;2023-12-14T01:11:59;11.00;8.10;7.30;97.00;97.00;98.00
84107;NextPM;74203;50.730;1.626;2023-12-14T01:14:06;9.90;7.30;6.60;92.50;93.00;93.50
84107;NextPM;74203;50.730;1.626;2023-12-14T01:16:14;11.05;8.15;7.35;102.00;102.50;103.00
84107;NextPM;74203;50.730;1.626;2023-12-14T01:18:22;10.55;7.75;7.05;98.00;99.00;99.00
84107;NextPM;74203;50.730;1.626;2023-12-14T01:20:29;9.90;7.30;6.55;90.00;91.00;91.00
84107;NextPM;74203;50.730;1.626;2023-12-14T01:22:37;9.95;7.35;6.65;95.00;95.00;96.00
84107;NextPM;74203;50.730;1.626;2023-12-14T01:24:45;10.60;7.85;7.05;92.50;92.50;93.50
84107;NextPM;74203;50.730;1.626;2023-12-14T01:26:53;9.90;7.30;6.60;91.50;92.00;92.50
84107;NextPM;74203;50.730;1.626;2023-12-14T01:29:00;10.20;7.50;6.80;92.00;93.00;94.00
84107;NextPM;74203;50.730;1.626;2023-12-14T01:31:08;9.55;7.10;6.40;88.00;88.50;89.50
84107;NextPM;74203;50.730;1.626;2023-12-14T01:33:16;9.85;7.30;6.55;90.50;91.50;92.00
84107;NextPM;74203;50.730;1.626;2023-12-14T01:35:23;10.35;7.70;6.90;91.00;91.50;92.00
84107;NextPM;74203;50.730;1.626;2023-12-14T01:37:31;10.00;7.40;6.65;87.00;88.00;88.00
84107;NextPM;74203;50.730;1.626;2023-12-14T01:39:39;10.50;7.75;6.95;95.50;96.00;96.50
84107;NextPM;74203;50.730;1.626;2023-12-14T01:41:46;9.85;7.30;6.55;91.50;91.50;92.50
84107;NextPM;74203;50.730;1.626;2023-12-14T01:43:54;10.25;7.60;6.85;93.00;93.50;94.00
84107;NextPM;74203;50.730;1.626;2023-12-14T01:46:01;9.45;7.00;6.30;86.00;87.00;87.00
84107;NextPM;74203;50.730;1.626;2023-12-14T01:48:10;10.00;7.35;6.65;89.50;90.50;90.50
84107;NextPM;74203;50.730;1.626;2023-12-14T01:50:17;8.35;6.20;5.55;77.00;77.50;78.50
84107;NextPM;74203;50.730;1.626;2023-12-14T01:52:25;8.50;6.30;5.65;82.00;82.00;82.50
84107;NextPM;74203;50.730;1.626;2023-12-14T01:54:33;9.35;6.90;6.20;86.00;87.00;87.00
84107;NextPM;74203;50.730;1.626;2023-12-14T01:56:40;9.60;7.10;6.35;84.50;84.50;85.50
84107;NextPM;74203;50.730;1.626;2023-12-14T01:58:48;9.05;6.70;6.00;82.50;83.00;83.00
84107;NextPM;74203;50.730;1.626;2023-12-14T02:00:59;8.95;6.60;5.95;81.00;82.00;82.00
84107;NextPM;74203;50.730;1.626;2023-12-14T02:03:18;9.20;6.80;6.15;85.50;86.50;86.50
84107;NextPM;74203;50.730;1.626;2023-12-14T02:05:26;9.75;7.25;6.50;89.50;91.00;91.00
84107;NextPM;74203;50.730;1.626;2023-12-14T02:07:33;9.50;7.05;6.35;86.00;86.50;86.50
84107;NextPM;74203;50.730;1.626;2023-12-14T02:09:41;9.25;6.85;6.15;84.50;85.50;86.00
84107;NextPM;74203;50.730;1.626;2023-12-14T02:11:49;9.40;6.95;6.20;88.50;89.50;90.00
84107;NextPM;74203;50.730;1.626;2023-12-14T02:13:57;8.60;6.40;5.70;79.00;80.50;80.50
84107;NextPM;74203;50.730;1.626;2023-12-14T02:16:08;9.15;6.75;6.10;82.50;83.00;83.50
84107;NextPM;74203;50.730;1.626;2023-12-14T02:18:15;9.70;7.15;6.45;89.00;89.50;89.50
84107;NextPM;74203;50.730;1.626;2023-12-14T02:20:23;8.25;6.10;5.45;76.50;77.50;77.50
84107;NextPM;74203;50.730;1.626;2023-12-14T02:22:35;9.10;6.70;6.10;80.00;81.00;81.00
84107;NextPM;74203;50.730;1.626;2023-12-14T02:24:54;9.45;7.00;6.30;86.00;86.50;86.50
84107;NextPM;74203;50.730;1.626;2023-12-14T02:27:02;8.70;6.45;5.80;79.50;80.00;80.00
84107;NextPM;74203;50.730;1.626;2023-12-14T02:29:11;8.60;6.35;5.75;80.00;80.00;81.00
84107;NextPM;74203;50.730;1.626;2023-12-14T02:31:19;7.65;5.60;5.10;70.50;71.00;71.50
84107;NextPM;74203;50.730;1.626;2023-12-14T02:33:27;7.70;5.65;5.10;69.50;70.00;70.00
84107;NextPM;74203;50.730;1.626;2023-12-14T02:35:35;8.15;6.00;5.40;71.50;72.50;72.50
84107;NextPM;74203;50.730;1.626;2023-12-14T02:37:43;8.50;6.30;5.65;75.50;76.00;76.50
84107;NextPM;74203;50.730;1.626;2023-12-14T02:39:50;9.20;6.80;6.10;84.50;84.50;85.50
84107;NextPM;74203;50.730;1.626;2023-12-14T02:41:58;8.45;6.20;5.60;76.50;77.00;77.50
84107;NextPM;74203;50.730;1.626;2023-12-14T02:44:06;8.15;6.05;5.40;77.50;78.00;78.50
84107;NextPM;74203;50.730;1.626;2023-12-14T02:46:14;8.25;6.10;5.50;77.00;77.50;78.50
84107;NextPM;74203;50.730;1.626;2023-12-14T02:48:21;8.35;6.15;5.55;75.50;76.50;76.50
84107;NextPM;74203;50.730;1.626;2023-12-14T02:50:29;9.15;6.75;6.10;85.00;85.50;86.00
84107;NextPM;74203;50.730;1.626;2023-12-14T02:52:36;8.20;6.05;5.45;75.00;75.50;76.00
84107;NextPM;74203;50.730;1.626;2023-12-14T02:54:44;8.50;6.25;5.65;77.00;77.00;78.00
84107;NextPM;74203;50.730;1.626;2023-12-14T02:56:52;7.45;5.50;4.95;70.00;71.00;71.00
84107;NextPM;74203;50.730;1.626;2023-12-14T02:59:00;8.25;6.10;5.50;73.50;74.00;74.50
84107;NextPM;74203;50.730;1.626;2023-12-14T03:01:07;8.80;6.50;5.80;79.50;80.00;80.50
84107;NextPM;74203;50.730;1.626;2023-12-14T03:03:15;8.85;6.50;5.85;84.00;84.50;84.50
84107;NextPM;74203;50.730;1.626;2023-12-14T03:05:23;9.85;7.25;6.55;91.00;91.50;92.00
84107;NextPM;74203;50.730;1.626;2023-12-14T03:07:30;10.40;7.70;6.90;94.00;95.00;95.00
84107;NextPM;74203;50.730;1.626;2023-12-14T03:09:39;10.30;7.60;6.85;93.00;93.00;93.50
84107;NextPM;74203;50.730;1.626;2023-12-14T03:11:47;11.05;8.15;7.35;101.00;101.50;102.00
84107;NextPM;74203;50.730;1.626;2023-12-14T03:14:02;9.90;7.35;6.60;91.00;91.50;92.00
84107;NextPM;74203;50.730;1.626;2023-12-14T03:16:10;10.65;7.85;7.10;99.00;99.50;99.50
84107;NextPM;74203;50.730;1.626;2023-12-14T03:18:18;10.55;7.80;7.00;94.50;95.00;96.00
84107;NextPM;74203;50.730;1.626;2023-12-14T03:20:25;9.70;7.20;6.45;88.00;89.00;89.00
84107;NextPM;74203;50.730;1.626;2023-12-14T03:22:34;10.45;7.75;6.95;99.00;99.00;100.00
84107;NextPM;74203;50.730;1.626;2023-12-14T03:24:41;10.35;7.65;6.90;91.50;92.50;93.50
84107;NextPM;74203;50.730;1.626;2023-12-14T03:26:50;11.25;8.30;7.50;103.50;104.50;104.50
84107;NextPM;74203;50.730;1.626;2023-12-14T03:28:57;11.25;8.30;7.50;103.50;104.50;104.50
84107;NextPM;74203;50.730;1.626;2023-12-14T03:31:05;11.40;8.40;7.55;104.50;105.50;105.50
84107;NextPM;74203;50.730;1.626;2023-12-14T03:33:14;11.75;8.65;7.80;106.50;107.00;107.00
84107;NextPM;74203;50.730;1.626;2023-12-14T03:35:22;10.25;7.55;6.80;92.50;93.00;93.00
84107;NextPM;74203;50.730;1.626;2023-12-14T03:37:30;9.90;7.30;6.55;92.50;93.00;93.50
84107;NextPM;74203;50.730;1.626;2023-12-14T03:39:37;9.85;7.25;6.55;91.00;91.50;92.00
84107;NextPM;74203;50.730;1.626;2023-12-14T03:41:45;10.30;7.60;6.85;95.00;95.50;96.00
84107;NextPM;74203;50.730;1.626;2023-12-14T03:43:53;9.85;7.25;6.50;94.50;94.50;95.00
84107;NextPM;74203;50.730;1.626;2023-12-14T03:46:01;9.55;7.05;6.40;88.50;89.00;89.00
84107;NextPM;74203;50.730;1.626;2023-12-14T03:48:10;10.20;7.60;6.80;94.50;95.00;95.00
84107;NextPM;74203;50.730;1.626;2023-12-14T03:50:18;9.95;7.35;6.60;92.00;92.50;93.00
84107;NextPM;74203;50.730;1.626;2023-12-14T03:52:26;9.35;6.95;6.25;86.00;87.00;87.00
84107;NextPM;74203;50.730;1.626;2023-12-14T03:54:34;9.70;7.20;6.45;92.00;92.00;93.00
84107;NextPM;74203;50.730;1.626;2023-12-14T03:56:41;9.30;6.85;6.15;88.50;89.00;89.50
84107;NextPM;74203;50.730;1.626;2023-12-14T03:58:49;9.75;7.20;6.50;90.50;91.50;92.50
84107;NextPM;74203;50.730;1.626;2023-12-14T04:00:56;9.85;7.25;6.55;88.50;89.50;89.50
84107;NextPM;74203;50.730;1.626;2023-12-14T04:03:04;9.70;7.20;6.45;89.00;90.00;90.00
84107;NextPM;74203;50.730;1.626;2023-12-14T04:05:12;9.05;6.70;6.00;85.50;86.50;86.50
84107;NextPM;74203;50.730;1.626;2023-12-14T04:07:20;9.60;7.05;6.35;86.50;87.00;87.50
84107;NextPM;74203;50.730;1.626;2023-12-14T04:09:27;10.25;7.60;6.80;94.00;94.50;95.00
84107;NextPM;74203;50.730;1.626;2023-12-14T04:11:35;8.80;6.50;5.90;83.00;84.00;84.00
84107;NextPM;74203;50.730;1.626;2023-12-14T04:13:42;9.25;6.80;6.15;85.50;86.00;86.00
84107;NextPM;74203;50.730;1.626;2023-12-14T04:15:50;8.55;6.30;5.70;77.50;78.50;78.50
84107;NextPM;74203;50.730;1.626;2023-12-14T04:17:58;9.10;6.75;6.05;85.00;85.00;86.00
84107;NextPM;74203;50.730;1.626;2023-12-14T04:20:06;9.05;6.70;6.00;84.00;84.00;85.00
84107;NextPM;74203;50.730;1.626;2023-12-14T04:22:15;9.50;7.00;6.30;87.50;88.50;88.50
84107;NextPM;74203;50.730;1.626;2023-12-14T04:24:23;9.55;7.10;6.35;87.50;88.00;88.50
84107;NextPM;74203;50.730;1.626;2023-12-14T04:26:31;9.60;7.05;6.40;90.50;91.00;91.50
84107;NextPM;74203;50.730;1.626;2023-12-14T04:28:39;9.40;6.95;6.25;88.00;89.00;89.00
84107;NextPM;74203;50.730;1.626;2023-12-14T04:30:46;9.95;7.35;6.65;90.00;91.00;91.00
84107;NextPM;74203;50.730;1.626;2023-12-14T04:32:54;10.40;7.70;6.95;92.50;93.00;93.00
84107;NextPM;74203;50.730;1.626;2023-12-14T04:35:02;11.15;8.30;7.45;102.50;103.00;104.00
84107;NextPM;74203;50.730;1.626;2023-12-14T04:37:11;10.55;7.85;7.05;96.00;96.00;97.00
84107;NextPM;74203;50.730;1.626;2023-12-14T04:39:18;10.65;7.85;7.05;98.00;98.50;99.00
84107;NextPM;74203;50.730;1.626;2023-12-14T04:41:26;9.90;7.30;6.55;90.00;90.50;91.50
84107;NextPM;74203;50.730;1.626;2023-12-14T04:43:33;9.80;7.25;6.50;92.50;93.00;93.50
84107;NextPM;74203;50.730;1.626;2023-12-14T04:45:41;10.35;7.65;6.90;96.50;96.50;97.00
84107;NextPM;74203;50.730;1.626;2023-12-14T04:47:48;9.85;7.30;6.55;92.00;92.50;92.50
84107;NextPM;74203;50.730;1.626;2023-12-14T04:49:56;9.60;7.05;6.40;88.50;89.50;89.50
84107;NextPM;74203;50.730;1.626;2023-12-14T04:52:04;9.35;6.90;6.20;90.00;90.50;91.00
84107;NextPM;74203;50.730;1.626;2023-12-14T04:54:12;9.60;7.10;6.40;91.50;92.00;92.50
84107;NextPM;74203;50.730;1.626;2023-12-14T04:56:20;8.85;6.50;5.90;82.50;83.50;83.50
84107;NextPM;74203;50.730;1.626;2023-12-14T04:58:28;8.90;6.55;5.95;83.00;84.00;84.50
84107;NextPM;74203;50.730;1.626;2023-12-14T05:00:35;10.55;7.80;7.00;93.50;94.50;94.50
84107;NextPM;74203;50.730;1.626;2023-12-14T05:02:43;9.85;7.30;6.55;94.50;95.00;95.00
84107;NextPM;74203;50.730;1.626;2023-12-14T05:04:54;9.50;7.00;6.30;88.50;89.50;89.50
84107;NextPM;74203;50.730;1.626;2023-12-14T05:07:01;9.80;7.25;6.50;91.00;92.00;92.00
84107;NextPM;74203;50.730;1.626;2023-12-14T05:09:09;9.90;7.25;6.55;89.00;89.50;90.00
84107;NextPM;74203;50.730;1.626;2023-12-14T05:11:17;9.40;6.95;6.25;87.00;87.50;88.00
84107;NextPM;74203;50.730;1.626;2023-12-14T05:13:24;9.95;7.35;6.65;92.00;92.00;93.00
84107;NextPM;74203;50.730;1.626;2023-12-14T05:15:32;8.95;6.60;5.90;83.00;83.50;84.00
84107;NextPM;74203;50.730;1.626;2023-12-14T05:17:40;8.75;6.45;5.85;81.50;82.50;82.50
84107;NextPM;74203;50.730;1.626;2023-12-14T05:19:49;8.20;6.05;5.45;77.00;78.00;78.00
84107;NextPM;74203;50.730;1.626;2023-12-14T05:21:57;8.80;6.50;5.85;82.50;83.50;83.50
84107;NextPM;74203;50.730;1.626;2023-12-14T05:24:05;7.70;5.70;5.15;70.00;70.00;70.50
84107;NextPM;74203;50.730;1.626;2023-12-14T05:26:14;8.90;6.60;5.95;85.50;86.00;86.50
84107;NextPM;74203;50.730;1.626;2023-12-14T05:28:22;7.85;5.80;5.20;74.00;74.50;75.00
84107;NextPM;74203;50.730;1.626;2023-12-14T05:30:30;9.20;6.80;6.15;83.50;84.50;84.50
84107;NextPM;74203;50.730;1.626;2023-12-14T05:32:37;9.20;6.75;6.10;88.00;89.00;89.00
84107;NextPM;74203;50.730;1.626;2023-12-14T05:34:45;13.05;9.60;8.65;125.00;126.00;126.50
84107;NextPM;74203;50.730;1.626;2023-12-14T05:36:53;10.35;7.65;6.85;98.00;99.00;99.50
84107;NextPM;74203;50.730;1.626;2023-12-14T05:39:00;10.00;7.40;6.70;93.00;94.00;94.00
84107;NextPM;74203;50.730;1.626;2023-12-14T05:41:08;10.05;7.40;6.70;91.00;91.50;91.50
84107;NextPM;74203;50.730;1.626;2023-12-14T05:43:16;9.00;6.65;6.00;89.50;90.50;90.50
84107;NextPM;74203;50.730;1.626;2023-12-14T05:45:24;9.60;7.10;6.40;89.00;89.50;90.00
84107;NextPM;74203;50.730;1.626;2023-12-14T05:47:31;9.45;6.95;6.25;89.00;90.00;90.00
84107;NextPM;74203;50.730;1.626;2023-12-14T05:49:42;8.85;6.55;5.90;83.50;83.50;84.00
84107;NextPM;74203;50.730;1.626;2023-12-14T05:51:50;9.30;6.85;6.15;88.00;88.50;89.00
84107;NextPM;74203;50.730;1.626;2023-12-14T05:53:58;9.65;7.15;6.40;89.00;89.00;89.50
84107;NextPM;74203;50.730;1.626;2023-12-14T05:56:07;8.70;6.45;5.80;81.50;82.00;82.00
84107;NextPM;74203;50.730;1.626;2023-12-14T05:58:15;8.80;6.55;5.85;85.50;85.50;85.50
84107;NextPM;74203;50.730;1.626;2023-12-14T06:00:23;9.10;6.70;6.00;86.50;87.00;87.00
84107;NextPM;74203;50.730;1.626;2023-12-14T06:02:31;8.35;6.10;5.50;79.00;79.50;79.50
84107;NextPM;74203;50.730;1.626;2023-12-14T06:04:39;8.60;6.30;5.70;80.50;81.00;81.00
84107;NextPM;74203;50.730;1.626;2023-12-14T06:06:47;8.20;6.05;5.45;76.50;76.50;77.00
84107;NextPM;74203;50.730;1.626;2023-12-14T06:08:55;8.95;6.60;5.95;83.50;84.00;84.50
84107;NextPM;74203;50.730;1.626;2023-12-14T06:11:02;8.80;6.50;5.85;82.00;83.00;83.00
84107;NextPM;74203;50.730;1.626;2023-12-14T06:13:10;8.00;5.90;5.30;78.00;78.50;78.50
84107;NextPM;74203;50.730;1.626;2023-12-14T06:15:18;7.55;5.60;5.05;71.50;72.50;72.50
84107;NextPM;74203;50.730;1.626;2023-12-14T06:17:25;8.55;6.30;5.65;80.00;80.50;80.50
84107;NextPM;74203;50.730;1.626;2023-12-14T06:19:33;9.05;6.65;6.00;87.50;88.50;88.50
84107;NextPM;74203;50.730;1.626;2023-12-14T06:21:42;9.00;6.60;5.95;84.00;84.00;84.50
84107;NextPM;74203;50.730;1.626;2023-12-14T06:23:49;8.80;6.45;5.85;81.50;81.50;82.00
84107;NextPM;74203;50.730;1.626;2023-12-14T06:25:57;8.75;6.45;5.80;85.50;85.50;86.00
84107;NextPM;74203;50.730;1.626;2023-12-14T06:28:06;8.85;6.55;5.90;83.00;83.50;83.50
84107;NextPM;74203;50.730;1.626;2023-12-14T06:30:14;8.60;6.35;5.70;76.50;77.00;77.00
84107;NextPM;74203;50.730;1.626;2023-12-14T06:32:22;7.85;5.80;5.20;75.00;76.00;76.00
84107;NextPM;74203;50.730;1.626;2023-12-14T06:34:30;8.10;6.00;5.40;73.00;74.00;74.00
84107;NextPM;74203;50.730;1.626;2023-12-14T06:36:41;8.70;6.40;5.80;80.50;81.50;81.50
84107;NextPM;74203;50.730;1.626;2023-12-14T06:38:50;8.30;6.10;5.50;79.00;79.00;79.50
84107;NextPM;74203;50.730;1.626;2023-12-14T06:40:57;8.05;5.95;5.35;74.00;75.00;75.00
84107;NextPM;74203;50.730;1.626;2023-12-14T06:43:06;8.80;6.50;5.85;83.00;83.50;83.50
84107;NextPM;74203;50.730;1.626;2023-12-14T06:45:13;7.65;5.65;5.10;70.50;71.50;71.50
84107;NextPM;74203;50.730;1.626;2023-12-14T06:47:21;8.25;6.05;5.45;77.00;78.00;78.00
84107;NextPM;74203;50.730;1.626;2023-12-14T06:49:29;7.65;5.70;5.10;70.50;71.50;71.50
84107;NextPM;74203;50.730;1.626;2023-12-14T06:51:36;6.85;5.05;4.55;65.50;66.00;66.50
84107;NextPM;74203;50.730;1.626;2023-12-14T06:53:44;7.30;5.40;4.85;65.50;66.00;66.00
84107;NextPM;74203;50.730;1.626;2023-12-14T06:55:52;7.20;5.35;4.80;66.50;67.00;67.00
84107;NextPM;74203;50.730;1.626;2023-12-14T06:58:00;7.30;5.40;4.85;66.50;67.00;67.00
84107;NextPM;74203;50.730;1.626;2023-12-14T07:00:08;7.15;5.30;4.75;64.50;65.00;65.50
84107;NextPM;74203;50.730;1.626;2023-12-14T07:02:17;6.85;5.10;4.55;64.00;64.50;65.00
84107;NextPM;74203;50.730;1.626;2023-12-14T07:04:25;6.90;5.10;4.60;63.00;63.00;63.00
84107;NextPM;74203;50.730;1.626;2023-12-14T07:06:33;6.65;4.90;4.40;60.00;60.50;60.50
84107;NextPM;74203;50.730;1.626;2023-12-14T07:08:40;6.60;4.85;4.35;61.50;62.00;62.50
84107;NextPM;74203;50.730;1.626;2023-12-14T07:10:48;6.80;5.05;4.55;63.00;63.50;63.50
84107;NextPM;74203;50.730;1.626;2023-12-14T07:12:56;17.80;13.15;11.85;170.00;170.50;171.00
84107;NextPM;74203;50.730;1.626;2023-12-14T07:15:05;7.85;5.80;5.20;74.50;75.00;75.50
84107;NextPM;74203;50.730;1.626;2023-12-14T07:17:14;6.65;4.90;4.40;57.00;57.50;58.00
84107;NextPM;74203;50.730;1.626;2023-12-14T07:19:21;6.40;4.70;4.25;59.00;59.50;59.50
84107;NextPM;74203;50.730;1.626;2023-12-14T07:21:29;6.55;4.85;4.35;60.00;60.50;61.00
84107;NextPM;74203;50.730;1.626;2023-12-14T07:23:37;6.75;5.00;4.50;65.50;66.00;66.00
84107;NextPM;74203;50.730;1.626;2023-12-14T07:25:44;6.55;4.85;4.35;60.50;60.50;60.50
84107;NextPM;74203;50.730;1.626;2023-12-14T07:27:52;6.20;4.55;4.10;58.00;58.00;58.50
84107;NextPM;74203;50.730;1.626;2023-12-14T07:30:00;6.80;5.00;4.50;63.00;63.50;64.00
84107;NextPM;74203;50.730;1.626;2023-12-14T07:32:08;6.85;5.05;4.55;61.50;62.00;62.00
84107;NextPM;74203;50.730;1.626;2023-12-14T07:34:15;7.20;5.30;4.75;66.50;67.50;67.50
84107;NextPM;74203;50.730;1.626;2023-12-14T07:36:23;7.50;5.55;5.00;70.00;70.50;70.50
84107;NextPM;74203;50.730;1.626;2023-12-14T07:38:31;7.35;5.40;4.90;68.00;68.50;69.00
84107;NextPM;74203;50.730;1.626;2023-12-14T07:40:38;6.95;5.10;4.60;64.50;65.00;65.50
84107;NextPM;74203;50.730;1.626;2023-12-14T07:42:46;7.00;5.20;4.65;64.50;65.00;65.50
84107;NextPM;74203;50.730;1.626;2023-12-14T07:44:54;7.10;5.25;4.75;64.00;64.00;64.50
84107;NextPM;74203;50.730;1.626;2023-12-14T07:47:02;8.05;5.95;5.35;73.50;74.50;74.50
84107;NextPM;74203;50.730;1.626;2023-12-14T07:49:10;7.30;5.40;4.85;65.00;65.50;66.00
84107;NextPM;74203;50.730;1.626;2023-12-14T07:51:18;7.30;5.40;4.85;64.50;64.50;64.50
84107;NextPM;74203;50.730;1.626;2023-12-14T07:53:26;7.60;5.60;5.05;71.00;72.00;72.00
84107;NextPM;74203;50.730;1.626;2023-12-14T07:55:33;7.25;5.35;4.85;64.00;65.00;65.00
84107;NextPM;74203;50.730;1.626;2023-12-14T07:57:41;7.30;5.40;4.85;66.50;66.50;66.50
84107;NextPM;74203;50.730;1.626;2023-12-14T07:59:48;8.40;6.25;5.60;77.00;78.00;78.00
84107;NextPM;74203;50.730;1.626;2023-12-14T08:01:56;8.70;6.40;5.75;82.00;82.50;83.00
84107;NextPM;74203;50.730;1.626;2023-12-14T08:04:04;18.80;13.90;12.50;185.50;186.00;186.50
84107;NextPM;74203;50.730;1.626;2023-12-14T08:06:12;10.75;7.95;7.15;100.00;100.50;101.00
84107;NextPM;74203;50.730;1.626;2023-12-14T08:08:19;8.75;6.50;5.85;82.50;83.50;83.50
84107;NextPM;74203;50.730;1.626;2023-12-14T08:10:27;15.20;11.20;10.10;145.50;146.00;146.50
84107;NextPM;74203;50.730;1.626;2023-12-14T08:12:35;9.60;7.10;6.40;88.50;88.50;89.00
84107;NextPM;74203;50.730;1.626;2023-12-14T08:14:42;7.65;5.65;5.10;70.00;70.50;70.50
84107;NextPM;74203;50.730;1.626;2023-12-14T08:16:50;10.45;7.70;6.95;99.00;100.00;100.00
84107;NextPM;74203;50.730;1.626;2023-12-14T08:18:58;8.85;6.55;5.90;82.50;83.00;83.00
84107;NextPM;74203;50.730;1.626;2023-12-14T08:21:06;9.80;7.20;6.50;93.00;93.00;93.00
84107;NextPM;74203;50.730;1.626;2023-12-14T08:23:13;7.75;5.70;5.10;73.50;74.00;74.50
84107;NextPM;74203;50.730;1.626;2023-12-14T08:25:21;7.55;5.55;5.05;68.50;69.50;69.50
84107;NextPM;74203;50.730;1.626;2023-12-14T08:27:29;7.35;5.45;4.85;68.00;68.00;69.00
84107;NextPM;74203;50.730;1.626;2023-12-14T08:29:37;8.85;6.50;5.90;85.00;85.50;85.50
84107;NextPM;74203;50.730;1.626;2023-12-14T08:31:44;8.25;6.05;5.45;76.50;76.50;77.00
84107;NextPM;74203;50.730;1.626;2023-12-14T08:33:52;8.70;6.40;5.80;82.50;83.50;83.50
84107;NextPM;74203;50.730;1.626;2023-12-14T08:36:00;9.40;7.00;6.30;85.50;86.50;86.50
84107;NextPM;74203;50.730;1.626;2023-12-14T08:38:08;8.15;6.00;5.40;75.00;75.50;76.00
84107;NextPM;74203;50.730;1.626;2023-12-14T08:40:17;8.50;6.25;5.65;79.00;79.00;79.50
84107;NextPM;74203;50.730;1.626;2023-12-14T08:42:24;7.60;5.60;5.05;69.00;69.00;69.50
84107;NextPM;74203;50.730;1.626;2023-12-14T08:44:32;7.75;5.75;5.15;72.50;73.00;73.00
84107;NextPM;74203;50.730;1.626;2023-12-14T08:46:43;7.90;5.80;5.25;73.50;74.50;74.50
84107;NextPM;74203;50.730;1.626;2023-12-14T08:48:51;7.85;5.80;5.20;73.00;73.00;73.50
84107;NextPM;74203;50.730;1.626;2023-12-14T08:50:59;8.95;6.65;5.95;86.00;86.00;87.00
84107;NextPM;74203;50.730;1.626;2023-12-14T08:53:07;9.60;7.15;6.40;93.00;93.00;93.00
84107;NextPM;74203;50.730;1.626;2023-12-14T08:55:15;8.85;6.55;5.85;83.00;83.50;83.50
84107;NextPM;74203;50.730;1.626;2023-12-14T08:57:23;7.80;5.75;5.20;71.50;72.00;72.00
84107;NextPM;74203;50.730;1.626;2023-12-14T08:59:31;6.95;5.15;4.60;65.50;66.50;66.50
84107;NextPM;74203;50.730;1.626;2023-12-14T09:01:39;6.40;4.70;4.25;60.50;61.50;61.50
84107;NextPM;74203;50.730;1.626;2023-12-14T09:03:46;6.95;5.15;4.65;65.00;65.50;66.00
84107;NextPM;74203;50.730;1.626;2023-12-14T09:05:54;7.20;5.30;4.80;70.00;70.00;70.00
84107;NextPM;74203;50.730;1.626;2023-12-14T09:08:02;6.80;5.00;4.50;62.00;62.50;63.00
84107;NextPM;74203;50.730;1.626;2023-12-14T09:10:10;7.25;5.40;4.85;70.50;70.50;71.00
84107;NextPM;74203;50.730;1.626;2023-12-14T09:12:36;7.20;5.30;4.75;64.50;65.00;65.00
84107;NextPM;74203;50.730;1.626;2023-12-14T09:14:44;7.25;5.30;4.80;66.50;67.00;67.00
84107;NextPM;74203;50.730;1.626;2023-12-14T09:16:52;7.60;5.60;5.05;67.00;67.50;67.50
84107;NextPM;74203;50.730;1.626;2023-12-14T09:19:00;7.15;5.30;4.75;69.00;69.00;69.00
84107;NextPM;74203;50.730;1.626;2023-12-14T09:21:08;7.00;5.15;4.60;65.50;66.00;66.00
84107;NextPM;74203;50.730;1.626;2023-12-14T09:23:15;6.85;5.05;4.55;64.00;64.00;64.50
84107;NextPM;74203;50.730;1.626;2023-12-14T09:25:23;7.20;5.35;4.75;66.50;67.50;67.50
84107;NextPM;74203;50.730;1.626;2023-12-14T09:27:31;7.15;5.25;4.75;69.00;69.00;69.00
84107;NextPM;74203;50.730;1.626;2023-12-14T09:29:38;7.20;5.30;4.75;65.00;65.00;65.00
84107;NextPM;74203;50.730;1.626;2023-12-14T09:31:46;7.90;5.80;5.25;71.50;72.50;72.50
84107;NextPM;74203;50.730;1.626;2023-12-14T09:33:54;6.25;4.60;4.15;59.00;59.50;59.50
84107;NextPM;74203;50.730;1.626;2023-12-14T09:36:02;7.40;5.50;4.90;68.50;69.00;69.00
84107;NextPM;74203;50.730;1.626;2023-12-14T09:40:59;7.35;5.40;4.90;65.50;66.00;66.50
84107;NextPM;74203;50.730;1.626;2023-12-14T09:43:07;6.50;4.80;4.35;59.00;60.00;60.00
84107;NextPM;74203;50.730;1.626;2023-12-14T09:45:15;6.75;5.00;4.50;64.00;64.50;64.50
84107;NextPM;74203;50.730;1.626;2023-12-14T09:47:26;6.10;4.50;4.05;57.50;58.00;58.00
84107;NextPM;74203;50.730;1.626;2023-12-14T09:49:33;6.35;4.70;4.20;56.50;57.50;57.50
84107;NextPM;74203;50.730;1.626;2023-12-14T09:51:43;6.30;4.60;4.20;60.00;60.00;60.00
84107;NextPM;74203;50.730;1.626;2023-12-14T09:53:51;5.75;4.25;3.80;54.00;54.00;54.00
84107;NextPM;74203;50.730;1.626;2023-12-14T09:55:59;5.75;4.20;3.80;54.50;54.50;55.00
84107;NextPM;74203;50.730;1.626;2023-12-14T09:58:07;11.05;5.05;3.80;55.00;55.50;55.50